createdAt,value
2018-11-28T00:00:10.801Z,21.6
2018-11-28T00:01:00.858Z,21.6
2018-11-28T00:01:50.916Z,21.6
2018-11-28T00:02:40.980Z,21.6
2018-11-28T00:03:30.766Z,21.6
2018-11-28T00:04:20.826Z,21.6
2018-11-28T00:05:10.885Z,21.6
2018-11-28T00:06:01.210Z,21.6
2018-11-28T00:06:51.278Z,21.6
2018-11-28T00:25:02.963Z,21.6
2018-11-28T00:25:59.179Z,21.6
2018-11-28T00:26:43.339Z,21.6
2018-11-28T00:27:33.381Z,21.7
2018-11-28T00:28:23.168Z,21.7
2018-11-28T00:29:13.511Z,21.6
2018-11-28T00:30:03.811Z,21.6
2018-11-28T00:30:53.343Z,21.7
2018-11-28T00:31:43.681Z,21.7
2018-11-28T00:32:33.741Z,21.6
2018-11-28T00:33:23.791Z,21.6
2018-11-28T00:34:13.862Z,21.7
2018-11-28T00:35:03.918Z,21.6
2018-11-28T00:35:53.969Z,21.7
2018-11-28T00:36:44.031Z,21.6
2018-11-28T00:37:34.088Z,21.7
2018-11-28T00:38:23.864Z,21.6
2018-11-28T00:39:13.923Z,21.7
2018-11-28T00:40:03.993Z,21.7
2018-11-28T00:40:54.328Z,21.7
2018-11-28T00:41:44.383Z,21.7
2018-11-28T00:42:34.445Z,21.7
2018-11-28T00:43:24.502Z,21.7
2018-11-28T00:44:14.570Z,21.7
2018-11-28T00:45:04.617Z,21.7
2018-11-28T00:45:54.677Z,21.7
2018-11-28T00:46:44.468Z,21.7
2018-11-28T00:47:34.818Z,21.7
2018-11-28T00:48:24.857Z,21.7
2018-11-28T00:49:14.915Z,21.7
2018-11-28T00:50:04.974Z,21.7
2018-11-28T00:50:55.040Z,21.7
2018-11-28T00:51:44.827Z,21.7
2018-11-28T00:52:35.146Z,21.7
2018-11-28T00:53:25.222Z,21.7
2018-11-28T00:54:15.279Z,21.7
2018-11-28T00:55:05.324Z,21.7
2018-11-28T00:55:55.702Z,21.7
2018-11-28T00:56:45.444Z,21.8
2018-11-28T00:57:35.504Z,21.7
2018-11-28T00:58:25.579Z,21.7
2018-11-28T00:59:15.871Z,21.8
2018-11-28T01:00:05.457Z,21.7
2018-11-28T01:00:55.744Z,21.7
2018-11-28T01:01:46.056Z,21.7
2018-11-28T01:02:35.867Z,21.8
2018-11-28T01:03:25.919Z,21.8
2018-11-28T01:04:16.231Z,21.8
2018-11-28T01:05:06.036Z,21.8
2018-11-28T01:05:56.106Z,21.8
2018-11-28T01:06:46.159Z,21.8
2018-11-28T01:07:36.226Z,21.8
2018-11-28T01:08:26.280Z,21.8
2018-11-28T01:09:16.059Z,21.8
2018-11-28T01:10:06.408Z,21.8
2018-11-28T01:10:56.463Z,21.8
2018-11-28T01:11:46.773Z,21.8
2018-11-28T01:12:36.023Z,21.8
2018-11-28T01:13:26.636Z,21.8
2018-11-28T01:14:16.946Z,21.8
2018-11-28T01:15:06.767Z,21.8
2018-11-28T01:15:56.816Z,21.8
2018-11-28T01:16:46.610Z,21.8
2018-11-28T01:17:36.658Z,21.8
2018-11-28T01:18:27.001Z,21.8
2018-11-28T01:19:17.050Z,21.8
2018-11-28T01:20:07.112Z,21.8
2018-11-28T01:20:57.167Z,21.8
2018-11-28T01:21:46.698Z,21.8
2018-11-28T01:22:37.295Z,21.8
2018-11-28T01:23:27.343Z,21.8
2018-11-28T01:24:17.138Z,21.8
2018-11-28T01:25:07.461Z,21.8
2018-11-28T01:25:57.527Z,21.8
2018-11-28T01:26:47.637Z,21.8
2018-11-28T01:27:37.642Z,21.8
2018-11-28T01:28:27.704Z,21.8
2018-11-28T01:29:17.760Z,21.8
2018-11-28T01:30:07.822Z,21.8
2018-11-28T01:30:57.887Z,21.8
2018-11-28T01:31:47.730Z,21.8
2018-11-28T01:32:38.004Z,21.8
2018-11-28T01:33:28.057Z,21.8
2018-11-28T01:34:17.842Z,21.8
2018-11-28T01:35:08.182Z,21.8
2018-11-28T01:35:58.244Z,21.8
2018-11-28T01:36:48.295Z,21.8
2018-11-28T01:37:38.351Z,21.8
2018-11-28T01:38:28.719Z,21.8
2018-11-28T01:39:18.472Z,21.8
2018-11-28T01:40:08.528Z,21.8
2018-11-28T01:40:58.326Z,21.8
2018-11-28T01:41:48.651Z,21.8
2018-11-28T01:42:38.439Z,21.8
2018-11-28T01:43:28.544Z,21.8
2018-11-28T01:44:18.832Z,21.8
2018-11-28T01:45:08.885Z,21.8
2018-11-28T01:45:58.674Z,21.8
2018-11-28T01:46:48.996Z,21.8
2018-11-28T01:47:39.073Z,21.8
2018-11-28T01:48:29.128Z,21.8
2018-11-28T01:49:18.902Z,21.8
2018-11-28T01:50:09.254Z,21.8
2018-11-28T01:50:59.026Z,21.8
2018-11-28T01:51:49.092Z,21.8
2018-11-28T01:52:39.421Z,21.8
2018-11-28T01:53:29.484Z,21.8
2018-11-28T01:54:19.543Z,21.8
2018-11-28T01:55:09.608Z,21.8
2018-11-28T01:55:59.393Z,21.8
2018-11-28T01:56:49.728Z,21.8
2018-11-28T01:57:39.781Z,21.8
2018-11-28T01:58:29.558Z,21.8
2018-11-28T01:59:19.893Z,21.8
2018-11-28T02:00:09.960Z,21.8
2018-11-28T02:01:00.019Z,21.8
2018-11-28T02:01:50.074Z,21.8
2018-11-28T02:02:40.137Z,21.8
2018-11-28T02:03:30.188Z,21.8
2018-11-28T02:04:19.983Z,21.8
2018-11-28T02:05:10.325Z,21.8
2018-11-28T02:06:00.372Z,21.8
2018-11-28T02:06:50.165Z,21.8
2018-11-28T02:07:40.222Z,21.8
2018-11-28T02:08:30.270Z,21.8
2018-11-28T02:09:20.602Z,21.8
2018-11-28T02:10:10.384Z,21.8
2018-11-28T02:11:00.444Z,21.8
2018-11-28T02:11:50.784Z,21.8
2018-11-28T02:12:40.841Z,21.8
2018-11-28T02:13:30.879Z,21.8
2018-11-28T02:14:20.967Z,21.8
2018-11-28T02:15:11.032Z,21.8
2018-11-28T02:16:01.084Z,21.8
2018-11-28T02:16:51.139Z,21.8
2018-11-28T02:17:41.194Z,21.8
2018-11-28T02:18:30.982Z,21.8
2018-11-28T02:19:21.036Z,21.8
2018-11-28T02:20:11.370Z,21.8
2018-11-28T02:21:01.436Z,21.8
2018-11-28T02:21:51.223Z,21.8
2018-11-28T02:22:41.273Z,21.8
2018-11-28T02:23:31.586Z,21.8
2018-11-28T02:24:21.399Z,21.8
2018-11-28T02:25:11.494Z,21.8
2018-11-28T02:26:01.516Z,21.8
2018-11-28T02:26:51.578Z,21.8
2018-11-28T02:27:41.919Z,21.8
2018-11-28T02:28:32.271Z,21.8
2018-11-28T02:29:22.026Z,21.8
2018-11-28T02:30:12.101Z,21.8
2018-11-28T02:31:02.161Z,21.8
2018-11-28T02:31:52.226Z,21.8
2018-11-28T02:32:42.278Z,21.8
2018-11-28T02:33:32.325Z,21.8
2018-11-28T02:34:22.382Z,21.8
2018-11-28T02:35:12.448Z,21.8
2018-11-28T02:36:02.505Z,21.8
2018-11-28T02:36:52.561Z,21.8
2018-11-28T02:37:42.630Z,21.8
2018-11-28T02:38:32.411Z,21.8
2018-11-28T02:39:22.460Z,21.8
2018-11-28T02:40:12.795Z,21.8
2018-11-28T02:41:02.856Z,21.8
2018-11-28T02:41:52.915Z,21.8
2018-11-28T02:42:42.699Z,21.8
2018-11-28T02:43:33.061Z,21.8
2018-11-28T02:44:23.095Z,21.8
2018-11-28T02:45:13.175Z,21.8
2018-11-28T02:46:02.945Z,21.8
2018-11-28T02:46:52.738Z,21.8
2018-11-28T02:47:43.348Z,21.8
2018-11-28T02:48:33.400Z,21.8
2018-11-28T02:49:23.182Z,21.8
2018-11-28T02:50:13.519Z,21.8
2018-11-28T02:51:03.813Z,21.8
2018-11-28T02:51:53.357Z,21.8
2018-11-28T02:52:43.688Z,21.8
2018-11-28T02:53:33.777Z,21.8
2018-11-28T02:54:23.799Z,21.8
2018-11-28T02:55:13.861Z,21.8
2018-11-28T02:56:04.234Z,21.8
2018-11-28T02:56:53.709Z,21.8
2018-11-28T02:57:43.783Z,21.8
2018-11-28T02:58:34.095Z,21.8
2018-11-28T02:59:23.877Z,21.8
2018-11-28T03:00:14.226Z,21.8
2018-11-28T03:01:04.274Z,21.8
2018-11-28T03:01:54.055Z,21.8
2018-11-28T03:02:44.396Z,21.8
2018-11-28T03:03:34.449Z,21.8
2018-11-28T03:04:24.837Z,21.8
2018-11-28T03:05:14.594Z,21.8
2018-11-28T03:06:04.647Z,21.8
2018-11-28T03:06:54.688Z,21.8
2018-11-28T03:07:44.759Z,21.8
2018-11-28T03:08:34.824Z,21.8
2018-11-28T03:09:25.116Z,21.8
2018-11-28T03:10:14.666Z,21.8
2018-11-28T03:11:04.984Z,21.8
2018-11-28T03:11:55.043Z,21.8
2018-11-28T03:12:44.848Z,21.8
2018-11-28T03:13:35.163Z,21.8
2018-11-28T03:14:25.231Z,21.8
2018-11-28T03:15:15.286Z,21.8
2018-11-28T03:16:05.348Z,21.8
2018-11-28T03:16:55.645Z,21.8
2018-11-28T03:17:45.483Z,21.8
2018-11-28T03:18:34.990Z,21.8
2018-11-28T03:19:25.842Z,21.8
2018-11-28T03:20:15.695Z,21.8
2018-11-28T03:21:05.433Z,21.8
2018-11-28T03:21:55.485Z,21.8
2018-11-28T03:22:45.812Z,21.8
2018-11-28T03:23:35.877Z,21.8
2018-11-28T03:24:25.937Z,21.8
2018-11-28T03:25:15.725Z,21.8
2018-11-28T03:26:06.296Z,21.8
2018-11-28T03:26:56.106Z,21.8
2018-11-28T03:27:46.165Z,21.8
2018-11-28T03:28:36.252Z,21.8
2018-11-28T03:29:26.285Z,21.8
2018-11-28T03:30:16.441Z,21.8
2018-11-28T03:31:06.442Z,21.8
2018-11-28T03:31:56.484Z,21.8
2018-11-28T03:32:46.540Z,21.8
2018-11-28T03:33:36.610Z,21.8
2018-11-28T03:34:26.652Z,21.8
2018-11-28T03:35:17.004Z,21.8
2018-11-28T03:36:06.774Z,21.8
2018-11-28T03:36:56.819Z,21.8
2018-11-28T03:37:46.883Z,21.8
2018-11-28T03:38:36.673Z,21.8
2018-11-28T03:39:26.996Z,21.8
2018-11-28T03:40:16.796Z,21.8
2018-11-28T03:41:06.574Z,21.8
2018-11-28T03:41:57.194Z,21.8
2018-11-28T03:42:47.239Z,21.8
2018-11-28T03:43:37.014Z,21.8
2018-11-28T03:44:27.351Z,21.8
2018-11-28T03:45:17.516Z,21.8
2018-11-28T03:46:07.190Z,21.8
2018-11-28T03:46:57.256Z,21.8
2018-11-28T03:47:47.594Z,21.8
2018-11-28T03:48:37.643Z,21.8
2018-11-28T03:49:27.436Z,21.8
2018-11-28T03:50:17.496Z,21.8
2018-11-28T03:51:07.832Z,21.8
2018-11-28T03:51:57.889Z,21.8
2018-11-28T03:52:47.939Z,21.8
2018-11-28T03:53:37.991Z,21.8
2018-11-28T03:54:28.071Z,21.8
2018-11-28T03:55:18.122Z,21.8
2018-11-28T03:56:07.900Z,21.8
2018-11-28T03:56:58.001Z,21.8
2018-11-28T03:57:48.319Z,21.8
2018-11-28T03:58:38.623Z,21.8
2018-11-28T03:59:28.414Z,21.8
2018-11-28T04:00:18.496Z,21.8
2018-11-28T04:01:08.543Z,21.8
2018-11-28T04:01:58.608Z,21.8
2018-11-28T04:02:48.653Z,21.8
2018-11-28T04:03:38.710Z,21.8
2018-11-28T04:04:28.772Z,21.8
2018-11-28T04:05:18.571Z,21.8
2018-11-28T04:06:08.885Z,21.8
2018-11-28T04:06:58.681Z,21.8
2018-11-28T04:07:48.743Z,21.8
2018-11-28T04:08:39.075Z,21.8
2018-11-28T04:09:29.125Z,21.8
2018-11-28T04:10:19.195Z,21.8
2018-11-28T04:11:09.250Z,21.8
2018-11-28T04:11:59.300Z,21.8
2018-11-28T04:12:49.626Z,21.8
2018-11-28T04:13:39.421Z,21.8
2018-11-28T04:14:29.472Z,21.8
2018-11-28T04:15:19.564Z,21.8
2018-11-28T04:16:09.617Z,21.8
2018-11-28T04:16:59.382Z,21.8
2018-11-28T04:17:49.745Z,21.8
2018-11-28T04:18:39.777Z,21.8
2018-11-28T04:19:29.846Z,21.8
2018-11-28T04:20:19.624Z,21.8
2018-11-28T04:21:09.677Z,21.8
2018-11-28T04:21:59.745Z,21.8
2018-11-28T04:22:50.093Z,21.8
2018-11-28T04:23:40.142Z,21.8
2018-11-28T04:24:30.189Z,21.8
2018-11-28T04:25:20.817Z,21.8
2018-11-28T04:26:10.319Z,21.8
2018-11-28T04:27:00.369Z,21.8
2018-11-28T04:27:50.426Z,21.8
2018-11-28T04:28:40.484Z,21.8
2018-11-28T04:29:30.544Z,21.8
2018-11-28T04:30:20.609Z,21.8
2018-11-28T04:31:10.664Z,21.8
2018-11-28T04:32:00.718Z,21.8
2018-11-28T04:32:50.831Z,21.8
2018-11-28T04:33:40.886Z,21.8
2018-11-28T04:34:30.631Z,21.8
2018-11-28T04:35:20.958Z,21.8
2018-11-28T04:36:11.023Z,21.8
2018-11-28T04:37:01.078Z,21.8
2018-11-28T04:54:19.218Z,21.8
2018-11-28T04:55:09.037Z,21.8
2018-11-28T04:55:59.080Z,21.8
2018-11-28T04:56:49.377Z,21.8
2018-11-28T04:57:39.191Z,21.8
2018-11-28T04:58:29.241Z,21.8
2018-11-28T04:59:19.604Z,21.8
2018-11-28T05:00:08.807Z,21.8
2018-11-28T05:00:59.412Z,21.8
2018-11-28T05:01:49.524Z,21.8
2018-11-28T05:02:39.534Z,21.8
2018-11-28T05:03:29.593Z,21.8
2018-11-28T05:04:19.421Z,21.8
2018-11-28T05:05:09.714Z,21.8
2018-11-28T05:05:59.776Z,21.8
2018-11-28T05:06:49.831Z,21.8
2018-11-28T05:07:39.885Z,21.8
2018-11-28T05:08:29.948Z,21.8
2018-11-28T05:09:19.723Z,21.8
2018-11-28T05:10:10.079Z,21.8
2018-11-28T05:11:00.118Z,21.8
2018-11-28T05:11:49.908Z,21.8
2018-11-28T05:12:40.243Z,21.8
2018-11-28T05:13:30.310Z,21.8
2018-11-28T05:14:20.374Z,21.8
2018-11-28T05:15:10.146Z,21.8
2018-11-28T05:16:00.473Z,21.8
2018-11-28T05:16:50.253Z,21.8
2018-11-28T05:17:40.593Z,21.8
2018-11-28T05:18:30.651Z,21.8
2018-11-28T05:19:20.705Z,21.8
2018-11-28T05:20:10.778Z,21.8
2018-11-28T05:21:01.079Z,21.8
2018-11-28T05:21:50.883Z,21.8
2018-11-28T05:22:40.948Z,21.8
2018-11-28T05:23:31.005Z,21.8
2018-11-28T05:24:21.058Z,21.8
2018-11-28T05:25:11.125Z,21.8
2018-11-28T05:26:00.912Z,21.8
2018-11-28T05:26:51.237Z,21.8
2018-11-28T05:27:41.304Z,21.8
2018-11-28T05:28:31.359Z,21.8
2018-11-28T05:29:21.147Z,21.8
2018-11-28T05:30:11.477Z,21.8
2018-11-28T05:31:01.529Z,21.8
2018-11-28T05:31:51.597Z,21.8
2018-11-28T05:32:41.391Z,21.8
2018-11-28T05:33:31.434Z,21.8
2018-11-28T05:34:21.499Z,21.8
2018-11-28T05:35:11.559Z,21.8
2018-11-28T05:36:01.887Z,21.8
2018-11-28T05:36:51.963Z,21.8
2018-11-28T05:37:42.014Z,21.8
2018-11-28T05:38:32.066Z,21.8
2018-11-28T05:39:22.131Z,21.8
2018-11-28T05:40:12.238Z,21.8
2018-11-28T05:41:02.248Z,21.8
2018-11-28T05:41:52.296Z,21.8
2018-11-28T05:42:42.356Z,21.8
2018-11-28T05:43:32.421Z,21.8
2018-11-28T05:44:22.501Z,21.8
2018-11-28T05:45:12.533Z,21.8
2018-11-28T05:46:02.601Z,21.8
2018-11-28T05:46:52.628Z,21.8
2018-11-28T05:47:42.443Z,21.8
2018-11-28T05:48:32.491Z,21.8
2018-11-28T05:49:22.823Z,21.8
2018-11-28T05:50:12.888Z,21.8
2018-11-28T05:51:02.686Z,21.8
2018-11-28T05:51:52.731Z,21.8
2018-11-28T05:52:43.069Z,21.8
2018-11-28T05:53:33.136Z,21.8
2018-11-28T05:54:23.183Z,21.8
2018-11-28T05:55:13.253Z,21.8
2018-11-28T05:56:03.300Z,21.8
2018-11-28T05:56:53.075Z,21.8
2018-11-28T05:57:44.668Z,21.8
2018-11-28T05:58:33.200Z,21.8
2018-11-28T05:59:28.239Z,21.8
2018-11-28T06:00:13.592Z,21.8
2018-11-28T06:01:03.640Z,21.8
2018-11-28T06:01:53.954Z,21.8
2018-11-28T06:02:43.495Z,21.8
2018-11-28T06:03:33.544Z,21.8
2018-11-28T06:04:23.876Z,21.8
2018-11-28T06:05:13.674Z,21.8
2018-11-28T06:06:03.996Z,21.8
2018-11-28T06:06:54.044Z,21.8
2018-11-28T06:07:44.112Z,21.8
2018-11-28T06:08:33.894Z,21.8
2018-11-28T06:09:23.962Z,21.8
2018-11-28T06:10:14.285Z,21.8
2018-11-28T06:11:04.349Z,21.8
2018-11-28T06:11:54.405Z,21.8
2018-11-28T06:12:44.589Z,21.8
2018-11-28T06:13:34.531Z,21.8
2018-11-28T06:14:24.585Z,21.8
2018-11-28T06:15:14.370Z,21.8
2018-11-28T06:16:04.699Z,21.8
2018-11-28T06:16:54.754Z,21.8
2018-11-28T06:17:44.866Z,21.8
2018-11-28T06:18:34.877Z,21.8
2018-11-28T06:19:24.929Z,21.8
2018-11-28T06:20:14.723Z,21.8
2018-11-28T06:21:05.051Z,21.8
2018-11-28T06:21:55.109Z,21.8
2018-11-28T06:22:45.180Z,21.8
2018-11-28T06:23:35.524Z,21.8
2018-11-28T06:24:24.733Z,21.8
2018-11-28T06:25:17.332Z,21.8
2018-11-28T06:26:05.405Z,21.8
2018-11-28T06:26:55.513Z,21.8
2018-11-28T06:27:45.515Z,21.8
2018-11-28T06:28:35.823Z,21.8
2018-11-28T06:29:25.643Z,21.8
2018-11-28T06:30:15.695Z,21.8
2018-11-28T06:31:05.775Z,21.8
2018-11-28T06:31:55.808Z,21.8
2018-11-28T06:32:52.235Z,21.8
2018-11-28T06:33:36.178Z,21.8
2018-11-28T06:34:25.989Z,21.8
2018-11-28T06:35:16.050Z,21.8
2018-11-28T06:36:06.150Z,21.8
2018-11-28T06:36:56.167Z,21.8
2018-11-28T06:37:46.476Z,21.8
2018-11-28T06:38:36.275Z,21.8
2018-11-28T06:39:26.335Z,21.8
2018-11-28T06:40:16.395Z,21.8
2018-11-28T06:41:06.460Z,21.8
2018-11-28T06:41:56.518Z,21.8
2018-11-28T06:42:46.881Z,21.8
2018-11-28T06:43:36.637Z,21.8
2018-11-28T06:44:26.702Z,21.8
2018-11-28T06:45:16.744Z,21.8
2018-11-28T06:46:06.535Z,21.8
2018-11-28T06:46:56.882Z,21.8
2018-11-28T06:47:46.939Z,21.8
2018-11-28T06:48:36.993Z,21.8
2018-11-28T06:49:27.034Z,21.8
2018-11-28T06:50:17.103Z,21.8
2018-11-28T06:51:07.154Z,21.8
2018-11-28T06:51:57.219Z,21.8
2018-11-28T06:52:47.276Z,21.8
2018-11-28T06:53:37.334Z,21.8
2018-11-28T06:54:27.119Z,21.8
2018-11-28T06:55:17.460Z,21.8
2018-11-28T06:56:07.509Z,21.8
2018-11-28T06:56:57.564Z,21.8
2018-11-28T06:57:47.638Z,21.8
2018-11-28T06:58:37.689Z,21.8
2018-11-28T06:59:27.746Z,21.8
2018-11-28T07:00:17.806Z,21.8
2018-11-28T07:01:07.852Z,21.8
2018-11-28T07:01:57.646Z,21.8
2018-11-28T07:02:47.980Z,21.8
2018-11-28T07:03:38.038Z,21.8
2018-11-28T07:04:28.090Z,21.8
2018-11-28T07:05:17.877Z,21.8
2018-11-28T07:06:08.206Z,21.8
2018-11-28T07:06:58.268Z,21.8
2018-11-28T07:07:48.336Z,21.8
2018-11-28T07:08:38.390Z,21.8
2018-11-28T07:09:28.441Z,21.8
2018-11-28T07:10:18.235Z,21.8
2018-11-28T07:11:08.561Z,21.8
2018-11-28T07:11:58.347Z,21.8
2018-11-28T07:12:48.673Z,21.8
2018-11-28T07:13:38.735Z,21.8
2018-11-28T07:14:28.795Z,21.8
2018-11-28T07:15:18.858Z,21.8
2018-11-28T07:16:08.919Z,21.8
2018-11-28T07:16:58.970Z,21.8
2018-11-28T07:17:49.027Z,21.8
2018-11-28T07:18:39.080Z,21.8
2018-11-28T07:19:29.142Z,21.8
2018-11-28T07:20:19.457Z,21.8
2018-11-28T07:21:08.982Z,21.8
2018-11-28T07:21:59.323Z,21.8
2018-11-28T07:22:49.380Z,21.8
2018-11-28T07:23:39.441Z,21.8
2018-11-28T07:24:29.502Z,21.8
2018-11-28T07:25:19.602Z,21.8
2018-11-28T07:26:09.617Z,21.8
2018-11-28T07:26:59.669Z,21.8
2018-11-28T07:27:49.459Z,21.8
2018-11-28T07:28:39.546Z,21.8
2018-11-28T07:29:29.847Z,21.8
2018-11-28T07:30:19.914Z,21.8
2018-11-28T07:31:09.964Z,21.8
2018-11-28T07:31:59.756Z,21.8
2018-11-28T07:32:50.083Z,21.8
2018-11-28T07:33:39.863Z,21.8
2018-11-28T07:34:30.198Z,21.8
2018-11-28T07:35:20.253Z,21.8
2018-11-28T07:36:10.311Z,21.8
2018-11-28T07:37:00.376Z,21.8
2018-11-28T07:37:50.435Z,21.8
2018-11-28T07:38:40.498Z,21.8
2018-11-28T07:39:30.558Z,21.9
2018-11-28T07:40:20.635Z,21.8
2018-11-28T07:41:10.660Z,21.8
2018-11-28T07:42:00.463Z,21.8
2018-11-28T07:42:50.785Z,21.8
2018-11-28T07:43:40.840Z,21.8
2018-11-28T07:44:30.908Z,21.8
2018-11-28T07:45:20.964Z,21.8
2018-11-28T07:46:11.020Z,21.8
2018-11-28T07:47:01.083Z,21.8
2018-11-28T07:47:51.145Z,21.8
2018-11-28T07:48:41.190Z,21.8
2018-11-28T07:49:31.271Z,21.8
2018-11-28T07:50:21.367Z,21.9
2018-11-28T07:51:11.422Z,21.9
2018-11-28T07:52:01.440Z,21.8
2018-11-28T07:52:51.214Z,21.8
2018-11-28T07:53:41.550Z,21.8
2018-11-28T07:54:31.607Z,21.8
2018-11-28T07:55:21.674Z,21.8
2018-11-28T07:56:11.722Z,21.9
2018-11-28T07:57:01.790Z,21.8
2018-11-28T07:57:51.843Z,21.8
2018-11-28T07:58:41.902Z,21.8
2018-11-28T07:59:31.959Z,21.9
2018-11-28T08:00:22.391Z,21.9
2018-11-28T08:01:12.061Z,21.8
2018-11-28T08:02:01.892Z,21.8
2018-11-28T08:02:52.199Z,21.8
2018-11-28T08:03:42.255Z,21.8
2018-11-28T08:04:32.417Z,21.9
2018-11-28T08:05:22.379Z,21.9
2018-11-28T08:06:12.157Z,21.8
2018-11-28T08:07:02.484Z,21.9
2018-11-28T08:07:52.540Z,21.8
2018-11-28T08:08:42.326Z,21.9
2018-11-28T08:09:32.669Z,21.8
2018-11-28T08:10:22.732Z,21.8
2018-11-28T08:11:12.776Z,21.9
2018-11-28T08:12:02.844Z,21.9
2018-11-28T08:12:52.901Z,21.9
2018-11-28T08:13:42.956Z,21.9
2018-11-28T08:14:33.014Z,21.8
2018-11-28T08:15:23.081Z,21.8
2018-11-28T08:16:13.130Z,21.8
2018-11-28T08:17:03.195Z,21.9
2018-11-28T08:17:53.249Z,21.8
2018-11-28T08:18:43.046Z,21.9
2018-11-28T08:19:33.366Z,21.8
2018-11-28T08:20:23.424Z,21.8
2018-11-28T08:21:13.477Z,21.8
2018-11-28T08:22:03.544Z,21.8
2018-11-28T08:22:53.603Z,21.8
2018-11-28T08:23:43.386Z,21.8
2018-11-28T08:24:33.781Z,21.8
2018-11-28T08:25:28.919Z,21.8
2018-11-28T08:26:13.831Z,21.8
2018-11-28T08:27:03.905Z,21.8
2018-11-28T08:27:53.671Z,21.8
2018-11-28T08:28:44.014Z,21.9
2018-11-28T08:29:34.065Z,21.8
2018-11-28T08:30:24.131Z,21.8
2018-11-28T08:31:14.191Z,21.8
2018-11-28T08:32:04.576Z,21.8
2018-11-28T08:32:54.305Z,21.8
2018-11-28T08:33:44.091Z,21.8
2018-11-28T08:34:34.159Z,21.8
2018-11-28T08:35:24.486Z,21.8
2018-11-28T08:36:14.800Z,21.8
2018-11-28T08:37:04.594Z,21.8
2018-11-28T08:37:54.386Z,21.8
2018-11-28T08:38:44.725Z,21.8
2018-11-28T08:39:34.227Z,21.8
2018-11-28T08:40:24.831Z,21.8
2018-11-28T08:41:14.904Z,21.8
2018-11-28T08:42:04.679Z,21.8
2018-11-28T08:42:55.050Z,21.8
2018-11-28T08:43:45.117Z,21.8
2018-11-28T08:44:34.850Z,21.8
2018-11-28T08:45:24.644Z,21.8
2018-11-28T08:46:15.285Z,21.8
2018-11-28T08:47:05.350Z,21.8
2018-11-28T08:47:55.085Z,21.8
2018-11-28T08:48:45.414Z,21.8
2018-11-28T08:49:35.477Z,21.8
2018-11-28T08:50:26.859Z,21.8
2018-11-28T08:51:15.319Z,21.8
2018-11-28T08:52:05.649Z,21.8
2018-11-28T08:52:55.712Z,21.8
2018-11-28T09:08:44.054Z,21.7
2018-11-28T09:09:33.779Z,21.7
2018-11-28T09:10:24.299Z,21.7
2018-11-28T09:11:14.217Z,21.7
2018-11-28T09:12:03.968Z,21.7
2018-11-28T09:12:54.282Z,21.7
2018-11-28T09:13:44.068Z,21.7
2018-11-28T09:14:34.396Z,21.7
2018-11-28T09:15:24.456Z,21.7
2018-11-28T09:16:14.508Z,21.6
2018-11-28T09:17:04.566Z,21.6
2018-11-28T09:17:54.348Z,21.6
2018-11-28T09:18:44.687Z,21.7
2018-11-28T09:19:34.465Z,21.6
2018-11-28T09:20:25.045Z,21.7
2018-11-28T09:21:14.871Z,21.6
2018-11-28T09:22:04.915Z,21.6
2018-11-28T09:22:54.989Z,21.6
2018-11-28T09:23:45.036Z,21.6
2018-11-28T09:24:35.093Z,21.6
2018-11-28T09:25:25.153Z,21.6
2018-11-28T09:26:15.207Z,21.6
2018-11-28T09:27:05.282Z,21.6
2018-11-28T09:27:55.353Z,21.6
2018-11-28T09:28:45.382Z,21.6
2018-11-28T09:29:35.167Z,21.6
2018-11-28T09:30:25.242Z,21.6
2018-11-28T09:31:15.569Z,21.6
2018-11-28T09:32:05.347Z,21.6
2018-11-28T09:32:55.680Z,21.6
2018-11-28T09:33:45.737Z,21.6
2018-11-28T09:34:36.044Z,21.6
2018-11-28T09:35:25.848Z,21.6
2018-11-28T09:36:15.916Z,21.6
2018-11-28T09:37:05.699Z,21.6
2018-11-28T09:37:56.037Z,21.6
2018-11-28T09:38:46.086Z,21.6
2018-11-28T09:39:36.400Z,21.6
2018-11-28T09:40:25.931Z,21.6
2018-11-28T09:41:16.264Z,21.6
2018-11-28T09:42:06.321Z,21.6
2018-11-28T09:42:56.380Z,21.6
2018-11-28T09:43:46.441Z,21.6
2018-11-28T09:44:36.544Z,21.6
2018-11-28T09:45:26.558Z,21.6
2018-11-28T09:46:16.618Z,21.6
2018-11-28T09:47:06.674Z,21.6
2018-11-28T09:47:56.791Z,21.6
2018-11-28T09:48:46.794Z,21.6
2018-11-28T09:49:36.578Z,21.6
2018-11-28T09:50:26.958Z,21.6
2018-11-28T09:51:16.974Z,21.5
2018-11-28T09:52:07.023Z,21.5
2018-11-28T09:52:57.081Z,21.6
2018-11-28T09:53:47.201Z,21.5
2018-11-28T09:54:37.201Z,21.5
2018-11-28T09:55:27.278Z,21.6
2018-11-28T09:56:17.316Z,21.5
2018-11-28T09:57:07.373Z,21.5
2018-11-28T09:57:57.482Z,21.5
2018-11-28T09:58:47.495Z,21.5
2018-11-28T09:59:37.572Z,21.6
2018-11-28T10:00:27.616Z,21.5
2018-11-28T10:01:17.665Z,21.5
2018-11-28T10:02:07.733Z,21.5
2018-11-28T10:02:58.093Z,21.5
2018-11-28T10:03:47.847Z,21.5
2018-11-28T10:04:37.633Z,21.5
2018-11-28T10:05:27.965Z,21.5
2018-11-28T10:06:18.028Z,21.4
2018-11-28T10:07:08.080Z,21.5
2018-11-28T10:07:58.397Z,21.4
2018-11-28T10:08:48.235Z,21.5
2018-11-28T10:09:38.260Z,21.4
2018-11-28T10:10:28.371Z,21.4
2018-11-28T10:11:18.095Z,21.4
2018-11-28T10:12:08.155Z,21.4
2018-11-28T10:12:58.238Z,21.4
2018-11-28T10:13:48.282Z,21.4
2018-11-28T10:14:38.337Z,21.4
2018-11-28T10:15:28.688Z,21.4
2018-11-28T10:16:18.727Z,21.4
2018-11-28T10:17:08.517Z,21.4
2018-11-28T10:17:58.860Z,21.4
2018-11-28T10:18:48.962Z,21.4
2018-11-28T10:19:38.962Z,21.4
2018-11-28T10:20:29.024Z,21.4
2018-11-28T10:21:19.085Z,21.4
2018-11-28T10:22:09.135Z,21.4
2018-11-28T10:22:59.197Z,21.4
2018-11-28T10:23:49.325Z,21.4
2018-11-28T10:24:39.047Z,21.4
2018-11-28T10:25:29.352Z,21.4
2018-11-28T10:26:19.436Z,21.4
2018-11-28T10:27:09.487Z,21.4
2018-11-28T10:27:59.001Z,21.4
2018-11-28T10:28:49.602Z,21.4
2018-11-28T10:29:39.384Z,21.4
2018-11-28T10:30:30.288Z,21.4
2018-11-28T10:31:19.522Z,21.4
2018-11-28T10:32:09.577Z,21.4
2018-11-28T10:32:59.910Z,21.4
2018-11-28T10:33:49.961Z,21.4
2018-11-28T10:34:40.022Z,21.4
2018-11-28T10:35:30.076Z,21.4
2018-11-28T10:36:20.142Z,21.3
2018-11-28T10:37:10.188Z,21.4
2018-11-28T10:37:59.982Z,21.3
2018-11-28T10:38:50.311Z,21.3
2018-11-28T10:39:40.099Z,21.4
2018-11-28T10:40:30.429Z,21.4
2018-11-28T10:41:20.489Z,21.4
2018-11-28T10:42:10.544Z,21.3
2018-11-28T10:43:00.601Z,21.3
2018-11-28T10:43:50.668Z,21.3
2018-11-28T10:44:40.448Z,21.3
2018-11-28T10:45:30.783Z,21.3
2018-11-28T10:46:20.839Z,21.3
2018-11-28T10:47:10.898Z,21.3
2018-11-28T10:48:00.968Z,21.3
2018-11-28T10:48:51.011Z,21.3
2018-11-28T10:49:40.806Z,21.3
2018-11-28T10:50:31.128Z,21.3
2018-11-28T10:51:21.194Z,21.3
2018-11-28T10:52:11.256Z,21.3
2018-11-28T10:53:00.753Z,21.3
2018-11-28T10:53:51.371Z,21.3
2018-11-28T10:54:41.422Z,21.3
2018-11-28T10:55:31.486Z,21.3
2018-11-28T10:56:21.271Z,21.3
2018-11-28T10:57:11.608Z,21.3
2018-11-28T10:58:01.665Z,21.3
2018-11-28T10:58:51.723Z,21.3
2018-11-28T10:59:41.777Z,21.3
2018-11-28T11:00:31.833Z,21.3
2018-11-28T11:01:21.903Z,21.3
2018-11-28T11:02:11.950Z,21.3
2018-11-28T11:03:02.017Z,21.3
2018-11-28T11:03:52.065Z,21.3
2018-11-28T11:04:42.132Z,21.3
2018-11-28T11:05:32.227Z,21.3
2018-11-28T11:06:22.238Z,21.3
2018-11-28T11:07:12.302Z,21.3
2018-11-28T11:08:02.080Z,21.3
2018-11-28T11:08:52.420Z,21.3
2018-11-28T11:09:42.532Z,21.3
2018-11-28T11:10:32.536Z,21.3
2018-11-28T11:11:22.324Z,21.3
2018-11-28T11:12:12.657Z,21.2
2018-11-28T11:13:02.719Z,21.2
2018-11-28T11:13:52.766Z,21.2
2018-11-28T11:14:42.867Z,21.2
2018-11-28T11:15:32.895Z,21.2
2018-11-28T11:16:22.971Z,21.2
2018-11-28T11:17:13.006Z,21.2
2018-11-28T11:18:03.296Z,21.2
2018-11-28T11:18:53.119Z,21.2
2018-11-28T11:19:43.189Z,21.2
2018-11-28T11:20:33.237Z,21.2
2018-11-28T11:21:23.294Z,21.2
2018-11-28T11:22:13.359Z,21.2
2018-11-28T11:23:03.141Z,21.2
2018-11-28T11:23:53.536Z,21.2
2018-11-28T11:24:43.568Z,21.2
2018-11-28T11:25:33.313Z,21.2
2018-11-28T11:27:13.714Z,21.2
2018-11-28T11:33:54.238Z,21.2
2018-11-28T11:44:44.667Z,21.1
2018-11-28T11:45:35.002Z,21.1
2018-11-28T11:47:14.840Z,21.1
2018-11-28T11:48:55.234Z,21.1
2018-11-28T11:49:45.287Z,21.1
2018-11-28T11:50:35.074Z,21.1
2018-11-28T11:51:25.410Z,21.1
2018-11-28T11:52:15.468Z,21.1
2018-11-28T11:53:05.521Z,21.1
2018-11-28T11:53:55.579Z,21.1
2018-11-28T11:54:45.639Z,21.1
2018-11-28T11:55:35.419Z,21.1
2018-11-28T11:56:25.852Z,21.1
2018-11-28T11:57:15.547Z,21.1
2018-11-28T11:58:05.883Z,21.1
2018-11-28T11:58:55.929Z,21.1
2018-11-28T11:59:45.989Z,21.1
2018-11-28T12:00:36.049Z,21.1
2018-11-28T12:01:26.109Z,21.1
2018-11-28T12:02:16.169Z,21.1
2018-11-28T12:03:06.229Z,21.1
2018-11-28T12:03:56.562Z,21
2018-11-28T12:04:46.346Z,21
2018-11-28T12:05:36.514Z,21
2018-11-28T12:06:26.464Z,21
2018-11-28T12:07:16.513Z,21
2018-11-28T12:08:06.577Z,21
2018-11-28T12:08:56.631Z,21
2018-11-28T12:09:46.421Z,21
2018-11-28T12:10:36.756Z,21
2018-11-28T12:11:26.811Z,21
2018-11-28T12:12:16.871Z,21
2018-11-28T12:13:06.933Z,21
2018-11-28T12:13:56.990Z,21